sensor_id;sensor_type;location;lat;lon;timestamp;temperature;humidity
15217;DHT22;7711;46.634;14.318;2023-02-18T00:02:21;0.90;99.90
15217;DHT22;7711;46.634;14.318;2023-02-18T00:04:48;0.90;99.90
15217;DHT22;7711;46.634;14.318;2023-02-18T00:07:16;0.80;99.90
15217;DHT22;7711;46.634;14.318;2023-02-18T00:09:43;0.80;99.90
15217;DHT22;7711;46.634;14.318;2023-02-18T00:12:10;0.80;99.90
15217;DHT22;7711;46.634;14.318;2023-02-18T00:14:37;0.80;99.90
15217;DHT22;7711;46.634;14.318;2023-02-18T00:17:04;0.80;99.90
15217;DHT22;7711;46.634;14.318;2023-02-18T00:19:31;0.70;99.90
15217;DHT22;7711;46.634;14.318;2023-02-18T00:21:58;0.70;99.90
15217;DHT22;7711;46.634;14.318;2023-02-18T00:24:27;0.60;99.90
15217;DHT22;7711;46.634;14.318;2023-02-18T00:26:54;0.60;99.90
15217;DHT22;7711;46.634;14.318;2023-02-18T00:29:21;0.60;99.90
15217;DHT22;7711;46.634;14.318;2023-02-18T00:31:47;0.60;99.90
15217;DHT22;7711;46.634;14.318;2023-02-18T00:34:14;0.60;99.90
15217;DHT22;7711;46.634;14.318;2023-02-18T00:36:41;0.50;99.90
15217;DHT22;7711;46.634;14.318;2023-02-18T00:39:09;0.50;99.90
15217;DHT22;7711;46.634;14.318;2023-02-18T00:41:38;0.50;99.90
15217;DHT22;7711;46.634;14.318;2023-02-18T00:44:06;0.50;99.90
15217;DHT22;7711;46.634;14.318;2023-02-18T00:46:34;0.60;99.90
15217;DHT22;7711;46.634;14.318;2023-02-18T00:49:01;0.60;99.90
15217;DHT22;7711;46.634;14.318;2023-02-18T00:51:28;0.70;99.90
15217;DHT22;7711;46.634;14.318;2023-02-18T00:53:56;0.70;99.90
15217;DHT22;7711;46.634;14.318;2023-02-18T00:56:23;0.60;99.90
15217;DHT22;7711;46.634;14.318;2023-02-18T00:58:51;0.70;99.90
15217;DHT22;7711;46.634;14.318;2023-02-18T01:01:19;0.70;99.90
15217;DHT22;7711;46.634;14.318;2023-02-18T01:03:46;0.70;99.90
15217;DHT22;7711;46.634;14.318;2023-02-18T01:06:13;0.60;99.90
15217;DHT22;7711;46.634;14.318;2023-02-18T01:08:40;0.60;99.90
15217;DHT22;7711;46.634;14.318;2023-02-18T01:11:08;0.60;99.90
15217;DHT22;7711;46.634;14.318;2023-02-18T01:13:36;0.70;99.90
15217;DHT22;7711;46.634;14.318;2023-02-18T01:16:05;0.60;99.90
15217;DHT22;7711;46.634;14.318;2023-02-18T01:18:32;0.60;99.90
15217;DHT22;7711;46.634;14.318;2023-02-18T01:21:00;0.60;99.90
15217;DHT22;7711;46.634;14.318;2023-02-18T01:23:27;0.60;99.90
15217;DHT22;7711;46.634;14.318;2023-02-18T01:25:54;0.50;99.90
15217;DHT22;7711;46.634;14.318;2023-02-18T01:28:22;0.50;99.90
15217;DHT22;7711;46.634;14.318;2023-02-18T01:30:50;0.40;99.90
15217;DHT22;7711;46.634;14.318;2023-02-18T01:33:19;0.40;99.90
15217;DHT22;7711;46.634;14.318;2023-02-18T01:35:46;0.40;99.90
15217;DHT22;7711;46.634;14.318;2023-02-18T01:38:13;0.30;99.90
15217;DHT22;7711;46.634;14.318;2023-02-18T01:40:45;0.40;99.90
15217;DHT22;7711;46.634;14.318;2023-02-18T01:43:13;0.40;99.90
15217;DHT22;7711;46.634;14.318;2023-02-18T01:45:55;0.40;99.90
15217;DHT22;7711;46.634;14.318;2023-02-18T01:48:27;0.50;99.90
15217;DHT22;7711;46.634;14.318;2023-02-18T01:50:58;0.50;99.90
15217;DHT22;7711;46.634;14.318;2023-02-18T01:53:27;0.50;99.90
15217;DHT22;7711;46.634;14.318;2023-02-18T01:55:56;0.50;99.90
15217;DHT22;7711;46.634;14.318;2023-02-18T01:58:24;0.40;99.90
15217;DHT22;7711;46.634;14.318;2023-02-18T02:00:51;0.50;99.90
15217;DHT22;7711;46.634;14.318;2023-02-18T02:03:18;0.50;99.90
15217;DHT22;7711;46.634;14.318;2023-02-18T02:05:46;0.40;99.90
15217;DHT22;7711;46.634;14.318;2023-02-18T02:08:13;0.40;99.90
15217;DHT22;7711;46.634;14.318;2023-02-18T02:11:01;0.30;99.90
15217;DHT22;7711;46.634;14.318;2023-02-18T02:13:40;0.30;99.90
15217;DHT22;7711;46.634;14.318;2023-02-18T02:16:14;0.30;99.90
15217;DHT22;7711;46.634;14.318;2023-02-18T02:18:53;0.30;99.90
15217;DHT22;7711;46.634;14.318;2023-02-18T02:24:56;0.40;99.90
15217;DHT22;7711;46.634;14.318;2023-02-18T02:27:31;0.30;99.90
15217;DHT22;7711;46.634;14.318;2023-02-18T02:30:30;0.30;99.90
15217;DHT22;7711;46.634;14.318;2023-02-18T02:36:00;0.20;99.90
15217;DHT22;7711;46.634;14.318;2023-02-18T02:38:33;0.10;99.90
15217;DHT22;7711;46.634;14.318;2023-02-18T02:41:12;0.10;99.90
15217;DHT22;7711;46.634;14.318;2023-02-18T02:43:49;0.10;99.90
15217;DHT22;7711;46.634;14.318;2023-02-18T02:46:20;0.00;99.90
15217;DHT22;7711;46.634;14.318;2023-02-18T02:48:55;0.00;99.90
15217;DHT22;7711;46.634;14.318;2023-02-18T02:51:27;0.10;99.90
15217;DHT22;7711;46.634;14.318;2023-02-18T02:54:08;0.10;99.90
15217;DHT22;7711;46.634;14.318;2023-02-18T02:56:35;0.10;99.90
15217;DHT22;7711;46.634;14.318;2023-02-18T02:59:05;0.10;99.90
15217;DHT22;7711;46.634;14.318;2023-02-18T03:01:43;0.00;99.90
15217;DHT22;7711;46.634;14.318;2023-02-18T03:04:37;-0.10;99.90
15217;DHT22;7711;46.634;14.318;2023-02-18T03:07:27;-0.20;99.90
15217;DHT22;7711;46.634;14.318;2023-02-18T03:10:16;-0.10;99.90
15217;DHT22;7711;46.634;14.318;2023-02-18T03:12:52;-0.10;99.90
15217;DHT22;7711;46.634;14.318;2023-02-18T03:15:28;-0.30;99.90
15217;DHT22;7711;46.634;14.318;2023-02-18T03:18:00;-0.20;99.90
15217;DHT22;7711;46.634;14.318;2023-02-18T03:20:33;-0.20;99.90
15217;DHT22;7711;46.634;14.318;2023-02-18T03:23:05;-0.30;99.90
15217;DHT22;7711;46.634;14.318;2023-02-18T03:25:35;-0.30;99.90
15217;DHT22;7711;46.634;14.318;2023-02-18T03:28:06;-0.40;99.90
15217;DHT22;7711;46.634;14.318;2023-02-18T03:30:39;-0.30;99.90
15217;DHT22;7711;46.634;14.318;2023-02-18T03:33:10;-0.30;99.90
15217;DHT22;7711;46.634;14.318;2023-02-18T03:35:41;-0.50;99.90
15217;DHT22;7711;46.634;14.318;2023-02-18T03:38:15;-0.50;99.90
15217;DHT22;7711;46.634;14.318;2023-02-18T03:40:44;-0.50;99.90
15217;DHT22;7711;46.634;14.318;2023-02-18T03:43:11;-0.50;99.90
15217;DHT22;7711;46.634;14.318;2023-02-18T03:45:38;-0.60;99.90
15217;DHT22;7711;46.634;14.318;2023-02-18T03:48:06;-0.60;99.90
15217;DHT22;7711;46.634;14.318;2023-02-18T03:50:33;-0.30;1.00
15217;DHT22;7711;46.634;14.318;2023-02-18T03:53:00;-0.60;99.90
15217;DHT22;7711;46.634;14.318;2023-02-18T03:55:28;-0.60;99.90
15217;DHT22;7711;46.634;14.318;2023-02-18T03:57:55;-0.60;1.00
15217;DHT22;7711;46.634;14.318;2023-02-18T04:00:22;-0.70;99.90
15217;DHT22;7711;46.634;14.318;2023-02-18T04:02:49;-0.60;1.00
15217;DHT22;7711;46.634;14.318;2023-02-18T04:05:17;-0.70;1.00
15217;DHT22;7711;46.634;14.318;2023-02-18T04:07:44;-0.70;1.00
15217;DHT22;7711;46.634;14.318;2023-02-18T04:10:11;-0.70;1.00
15217;DHT22;7711;46.634;14.318;2023-02-18T04:12:39;-0.70;1.00
15217;DHT22;7711;46.634;14.318;2023-02-18T04:15:07;-0.60;1.00
15217;DHT22;7711;46.634;14.318;2023-02-18T04:17:34;-0.70;1.00
15217;DHT22;7711;46.634;14.318;2023-02-18T04:20:01;-0.70;1.00
15217;DHT22;7711;46.634;14.318;2023-02-18T04:22:29;-0.70;1.00
15217;DHT22;7711;46.634;14.318;2023-02-18T04:24:56;-0.70;1.00
15217;DHT22;7711;46.634;14.318;2023-02-18T04:27:23;-0.70;1.00
15217;DHT22;7711;46.634;14.318;2023-02-18T04:29:52;-0.60;1.00
15217;DHT22;7711;46.634;14.318;2023-02-18T04:32:19;-0.70;1.00
15217;DHT22;7711;46.634;14.318;2023-02-18T04:34:46;-0.70;1.00
15217;DHT22;7711;46.634;14.318;2023-02-18T04:37:13;-0.70;1.00
15217;DHT22;7711;46.634;14.318;2023-02-18T04:39:40;-0.80;1.00
15217;DHT22;7711;46.634;14.318;2023-02-18T04:42:07;-0.80;1.00
15217;DHT22;7711;46.634;14.318;2023-02-18T04:44:35;-0.70;1.00
15217;DHT22;7711;46.634;14.318;2023-02-18T04:47:04;-0.80;1.00
15217;DHT22;7711;46.634;14.318;2023-02-18T04:49:32;-0.70;1.00
15217;DHT22;7711;46.634;14.318;2023-02-18T04:51:59;-0.80;1.00
15217;DHT22;7711;46.634;14.318;2023-02-18T04:54:26;-0.80;1.00
15217;DHT22;7711;46.634;14.318;2023-02-18T04:56:53;-0.80;1.00
15217;DHT22;7711;46.634;14.318;2023-02-18T04:59:20;-0.80;1.00
15217;DHT22;7711;46.634;14.318;2023-02-18T05:01:47;-0.90;1.00
15217;DHT22;7711;46.634;14.318;2023-02-18T05:04:15;-0.90;1.00
15217;DHT22;7711;46.634;14.318;2023-02-18T05:06:43;-0.90;1.00
15217;DHT22;7711;46.634;14.318;2023-02-18T05:09:10;-0.90;1.00
15217;DHT22;7711;46.634;14.318;2023-02-18T05:11:37;-0.90;1.00
15217;DHT22;7711;46.634;14.318;2023-02-18T05:14:04;-0.90;1.00
15217;DHT22;7711;46.634;14.318;2023-02-18T05:16:31;-0.90;1.00
15217;DHT22;7711;46.634;14.318;2023-02-18T05:18:58;-0.90;1.00
15217;DHT22;7711;46.634;14.318;2023-02-18T05:21:27;-0.90;1.00
15217;DHT22;7711;46.634;14.318;2023-02-18T05:23:54;-0.90;1.00
15217;DHT22;7711;46.634;14.318;2023-02-18T05:26:21;-0.90;1.00
15217;DHT22;7711;46.634;14.318;2023-02-18T05:28:48;-0.90;1.00
15217;DHT22;7711;46.634;14.318;2023-02-18T05:31:15;-0.90;1.00
15217;DHT22;7711;46.634;14.318;2023-02-18T05:33:42;-0.80;1.00
15217;DHT22;7711;46.634;14.318;2023-02-18T05:36:09;-1.00;1.00
15217;DHT22;7711;46.634;14.318;2023-02-18T05:38:38;-1.00;1.00
15217;DHT22;7711;46.634;14.318;2023-02-18T05:41:05;-0.90;1.00
15217;DHT22;7711;46.634;14.318;2023-02-18T05:43:32;-0.90;1.00
15217;DHT22;7711;46.634;14.318;2023-02-18T05:46:20;-0.90;1.00
15217;DHT22;7711;46.634;14.318;2023-02-18T05:48:47;-0.90;1.00
15217;DHT22;7711;46.634;14.318;2023-02-18T05:51:14;-0.90;1.00
15217;DHT22;7711;46.634;14.318;2023-02-18T05:53:43;-0.90;1.00
15217;DHT22;7711;46.634;14.318;2023-02-18T05:56:10;-0.80;1.00
15217;DHT22;7711;46.634;14.318;2023-02-18T05:58:37;-0.80;1.00
15217;DHT22;7711;46.634;14.318;2023-02-18T06:01:04;-0.90;1.00
15217;DHT22;7711;46.634;14.318;2023-02-18T06:03:31;-0.90;1.00
15217;DHT22;7711;46.634;14.318;2023-02-18T06:05:58;-0.80;1.00
15217;DHT22;7711;46.634;14.318;2023-02-18T06:08:25;-0.80;1.00
15217;DHT22;7711;46.634;14.318;2023-02-18T06:10:53;-0.80;1.00
15217;DHT22;7711;46.634;14.318;2023-02-18T06:13:20;-0.90;1.00
15217;DHT22;7711;46.634;14.318;2023-02-18T06:15:49;-0.90;1.00
15217;DHT22;7711;46.634;14.318;2023-02-18T06:18:16;-0.90;1.00
15217;DHT22;7711;46.634;14.318;2023-02-18T06:20:45;-0.90;1.00
15217;DHT22;7711;46.634;14.318;2023-02-18T06:23:12;-0.80;1.00
15217;DHT22;7711;46.634;14.318;2023-02-18T06:25:39;-0.80;1.00
15217;DHT22;7711;46.634;14.318;2023-02-18T06:28:08;-0.70;1.00
15217;DHT22;7711;46.634;14.318;2023-02-18T06:30:35;-0.70;1.00
15217;DHT22;7711;46.634;14.318;2023-02-18T06:33:02;-0.60;1.00
15217;DHT22;7711;46.634;14.318;2023-02-18T06:35:29;-0.60;1.00
15217;DHT22;7711;46.634;14.318;2023-02-18T06:37:56;-0.60;1.00
15217;DHT22;7711;46.634;14.318;2023-02-18T06:40:23;-0.60;1.00
15217;DHT22;7711;46.634;14.318;2023-02-18T06:42:50;-0.60;1.00
15217;DHT22;7711;46.634;14.318;2023-02-18T06:45:19;-0.40;1.00
15217;DHT22;7711;46.634;14.318;2023-02-18T06:47:46;-0.40;1.00
15217;DHT22;7711;46.634;14.318;2023-02-18T06:50:13;-0.40;1.00
15217;DHT22;7711;46.634;14.318;2023-02-18T06:52:40;-0.40;1.00
15217;DHT22;7711;46.634;14.318;2023-02-18T06:55:08;-0.30;1.00
15217;DHT22;7711;46.634;14.318;2023-02-18T06:57:35;-0.40;1.00
15217;DHT22;7711;46.634;14.318;2023-02-18T07:00:03;-0.20;1.00
15217;DHT22;7711;46.634;14.318;2023-02-18T07:02:31;-0.10;1.00
15217;DHT22;7711;46.634;14.318;2023-02-18T07:04:58;-0.10;99.90
15217;DHT22;7711;46.634;14.318;2023-02-18T07:07:25;0.00;99.90
15217;DHT22;7711;46.634;14.318;2023-02-18T07:09:52;0.00;99.90
15217;DHT22;7711;46.634;14.318;2023-02-18T07:12:19;0.10;99.90
15217;DHT22;7711;46.634;14.318;2023-02-18T07:14:46;0.20;99.90
15217;DHT22;7711;46.634;14.318;2023-02-18T07:17:13;0.30;99.90
15217;DHT22;7711;46.634;14.318;2023-02-18T07:19:42;0.40;99.90
15217;DHT22;7711;46.634;14.318;2023-02-18T07:22:09;0.50;99.90
15217;DHT22;7711;46.634;14.318;2023-02-18T07:24:36;0.60;99.90
15217;DHT22;7711;46.634;14.318;2023-02-18T07:27:03;0.60;99.90
15217;DHT22;7711;46.634;14.318;2023-02-18T07:29:30;0.70;99.90
15217;DHT22;7711;46.634;14.318;2023-02-18T07:31:57;0.80;99.90
15217;DHT22;7711;46.634;14.318;2023-02-18T07:34:24;0.90;99.90
15217;DHT22;7711;46.634;14.318;2023-02-18T07:36:52;1.00;99.90
15217;DHT22;7711;46.634;14.318;2023-02-18T07:39:19;1.20;99.90
15217;DHT22;7711;46.634;14.318;2023-02-18T07:41:47;1.10;99.90
15217;DHT22;7711;46.634;14.318;2023-02-18T07:44:14;1.30;99.90
15217;DHT22;7711;46.634;14.318;2023-02-18T07:46:41;1.30;99.90
15217;DHT22;7711;46.634;14.318;2023-02-18T07:49:08;1.40;99.90
15217;DHT22;7711;46.634;14.318;2023-02-18T07:51:35;1.40;99.90
15217;DHT22;7711;46.634;14.318;2023-02-18T07:54:06;1.40;99.90
15217;DHT22;7711;46.634;14.318;2023-02-18T07:56:33;1.50;99.90
15217;DHT22;7711;46.634;14.318;2023-02-18T07:59:00;1.40;99.90
15217;DHT22;7711;46.634;14.318;2023-02-18T08:01:27;1.40;99.90
15217;DHT22;7711;46.634;14.318;2023-02-18T08:03:54;1.30;99.90
15217;DHT22;7711;46.634;14.318;2023-02-18T08:06:25;1.40;99.90
15217;DHT22;7711;46.634;14.318;2023-02-18T08:08:52;1.40;99.90
15217;DHT22;7711;46.634;14.318;2023-02-18T08:11:20;1.40;99.90
15217;DHT22;7711;46.634;14.318;2023-02-18T08:13:48;1.60;99.90
15217;DHT22;7711;46.634;14.318;2023-02-18T08:16:15;1.70;99.90
15217;DHT22;7711;46.634;14.318;2023-02-18T08:18:43;1.70;99.90
15217;DHT22;7711;46.634;14.318;2023-02-18T08:21:10;1.80;99.90
15217;DHT22;7711;46.634;14.318;2023-02-18T08:23:37;2.00;99.90
15217;DHT22;7711;46.634;14.318;2023-02-18T08:26:04;1.90;99.90
15217;DHT22;7711;46.634;14.318;2023-02-18T08:28:32;2.00;99.90
15217;DHT22;7711;46.634;14.318;2023-02-18T08:30:59;2.20;99.90
15217;DHT22;7711;46.634;14.318;2023-02-18T08:33:27;2.20;99.90
15217;DHT22;7711;46.634;14.318;2023-02-18T08:35:55;2.30;99.90
15217;DHT22;7711;46.634;14.318;2023-02-18T08:38:23;2.20;99.90
15217;DHT22;7711;46.634;14.318;2023-02-18T08:41:00;2.30;99.90
15217;DHT22;7711;46.634;14.318;2023-02-18T08:43:27;2.20;99.90
15217;DHT22;7711;46.634;14.318;2023-02-18T08:45:56;2.30;99.90
15217;DHT22;7711;46.634;14.318;2023-02-18T08:48:23;2.40;99.90
15217;DHT22;7711;46.634;14.318;2023-02-18T08:50:51;2.50;99.90
15217;DHT22;7711;46.634;14.318;2023-02-18T08:53:18;2.50;99.90
15217;DHT22;7711;46.634;14.318;2023-02-18T08:55:45;2.50;99.90
15217;DHT22;7711;46.634;14.318;2023-02-18T08:58:13;2.40;99.90
15217;DHT22;7711;46.634;14.318;2023-02-18T09:00:41;2.40;99.90
15217;DHT22;7711;46.634;14.318;2023-02-18T09:03:11;2.70;99.90
15217;DHT22;7711;46.634;14.318;2023-02-18T09:05:38;2.70;99.90
15217;DHT22;7711;46.634;14.318;2023-02-18T09:08:06;3.00;99.90
15217;DHT22;7711;46.634;14.318;2023-02-18T09:10:33;3.10;99.90
15217;DHT22;7711;46.634;14.318;2023-02-18T09:13:00;3.00;99.90
15217;DHT22;7711;46.634;14.318;2023-02-18T09:15:28;3.10;99.90
15217;DHT22;7711;46.634;14.318;2023-02-18T09:17:56;3.30;99.90
15217;DHT22;7711;46.634;14.318;2023-02-18T09:20:26;3.40;99.90
15217;DHT22;7711;46.634;14.318;2023-02-18T09:22:53;3.70;99.90
15217;DHT22;7711;46.634;14.318;2023-02-18T09:25:22;4.00;99.90
15217;DHT22;7711;46.634;14.318;2023-02-18T09:27:50;4.30;99.90
15217;DHT22;7711;46.634;14.318;2023-02-18T09:30:17;4.50;99.90
15217;DHT22;7711;46.634;14.318;2023-02-18T09:32:44;4.60;99.90
15217;DHT22;7711;46.634;14.318;2023-02-18T09:35:11;4.50;99.90
15217;DHT22;7711;46.634;14.318;2023-02-18T09:37:40;4.80;99.90
15217;DHT22;7711;46.634;14.318;2023-02-18T09:40:09;5.00;99.90
15217;DHT22;7711;46.634;14.318;2023-02-18T09:42:41;5.00;99.90
15217;DHT22;7711;46.634;14.318;2023-02-18T09:45:10;4.70;99.90
15217;DHT22;7711;46.634;14.318;2023-02-18T09:47:42;4.60;99.90
15217;DHT22;7711;46.634;14.318;2023-02-18T09:50:16;4.50;99.90
15217;DHT22;7711;46.634;14.318;2023-02-18T09:52:46;4.60;99.90
15217;DHT22;7711;46.634;14.318;2023-02-18T09:55:20;4.40;99.90
15217;DHT22;7711;46.634;14.318;2023-02-18T09:57:49;4.40;99.90
15217;DHT22;7711;46.634;14.318;2023-02-18T10:00:20;4.70;99.90
15217;DHT22;7711;46.634;14.318;2023-02-18T10:02:54;4.70;99.90
15217;DHT22;7711;46.634;14.318;2023-02-18T10:05:22;4.70;99.90
15217;DHT22;7711;46.634;14.318;2023-02-18T10:07:53;4.90;99.90
15217;DHT22;7711;46.634;14.318;2023-02-18T10:10:30;5.00;99.90
15217;DHT22;7711;46.634;14.318;2023-02-18T10:13:01;5.10;99.90
15217;DHT22;7711;46.634;14.318;2023-02-18T10:15:30;5.20;99.90
15217;DHT22;7711;46.634;14.318;2023-02-18T10:17:58;5.10;99.90
15217;DHT22;7711;46.634;14.318;2023-02-18T10:20:28;5.00;99.90
15217;DHT22;7711;46.634;14.318;2023-02-18T10:22:59;5.10;99.90
15217;DHT22;7711;46.634;14.318;2023-02-18T10:25:27;5.00;99.90
15217;DHT22;7711;46.634;14.318;2023-02-18T10:27:57;5.10;99.90
15217;DHT22;7711;46.634;14.318;2023-02-18T10:30:29;5.10;99.90
15217;DHT22;7711;46.634;14.318;2023-02-18T10:33:05;5.50;99.90
15217;DHT22;7711;46.634;14.318;2023-02-18T10:35:39;5.30;99.90
15217;DHT22;7711;46.634;14.318;2023-02-18T10:38:14;5.10;99.90
15217;DHT22;7711;46.634;14.318;2023-02-18T10:40:52;5.40;99.90
15217;DHT22;7711;46.634;14.318;2023-02-18T10:43:26;5.50;99.90
15217;DHT22;7711;46.634;14.318;2023-02-18T10:46:03;5.30;99.90
15217;DHT22;7711;46.634;14.318;2023-02-18T10:48:42;5.10;99.90
15217;DHT22;7711;46.634;14.318;2023-02-18T10:51:16;4.80;99.90
15217;DHT22;7711;46.634;14.318;2023-02-18T10:53:48;4.70;99.90
15217;DHT22;7711;46.634;14.318;2023-02-18T10:56:38;4.90;99.90
15217;DHT22;7711;46.634;14.318;2023-02-18T10:59:12;4.90;99.90
15217;DHT22;7711;46.634;14.318;2023-02-18T11:01:41;5.10;99.90
15217;DHT22;7711;46.634;14.318;2023-02-18T11:04:14;5.30;99.90
15217;DHT22;7711;46.634;14.318;2023-02-18T11:06:43;5.70;99.90
15217;DHT22;7711;46.634;14.318;2023-02-18T11:09:39;6.20;99.90
15217;DHT22;7711;46.634;14.318;2023-02-18T11:12:13;6.50;99.90
15217;DHT22;7711;46.634;14.318;2023-02-18T11:14:43;6.10;99.90
15217;DHT22;7711;46.634;14.318;2023-02-18T11:17:17;6.50;99.90
15217;DHT22;7711;46.634;14.318;2023-02-18T11:19:52;6.60;99.90
15217;DHT22;7711;46.634;14.318;2023-02-18T11:22:21;6.70;99.90
15217;DHT22;7711;46.634;14.318;2023-02-18T11:24:53;6.50;99.90
15217;DHT22;7711;46.634;14.318;2023-02-18T11:27:24;6.70;99.90
15217;DHT22;7711;46.634;14.318;2023-02-18T11:29:55;6.90;99.90
15217;DHT22;7711;46.634;14.318;2023-02-18T11:32:26;6.70;99.90
15217;DHT22;7711;46.634;14.318;2023-02-18T11:34:53;6.70;99.90
15217;DHT22;7711;46.634;14.318;2023-02-18T11:37:21;6.60;99.90
15217;DHT22;7711;46.634;14.318;2023-02-18T11:39:52;6.50;99.90
15217;DHT22;7711;46.634;14.318;2023-02-18T11:42:22;6.60;99.90
15217;DHT22;7711;46.634;14.318;2023-02-18T11:44:52;6.20;99.90
15217;DHT22;7711;46.634;14.318;2023-02-18T11:47:23;6.00;99.90
15217;DHT22;7711;46.634;14.318;2023-02-18T11:52:45;6.40;99.90
15217;DHT22;7711;46.634;14.318;2023-02-18T11:55:19;6.40;99.90
15217;DHT22;7711;46.634;14.318;2023-02-18T11:57:49;6.10;99.90
15217;DHT22;7711;46.634;14.318;2023-02-18T12:00:35;6.50;99.90
15217;DHT22;7711;46.634;14.318;2023-02-18T12:03:26;6.60;99.90
15217;DHT22;7711;46.634;14.318;2023-02-18T12:05:56;6.80;99.90
15217;DHT22;7711;46.634;14.318;2023-02-18T12:08:27;6.90;99.90
15217;DHT22;7711;46.634;14.318;2023-02-18T12:10:59;6.90;99.90
15217;DHT22;7711;46.634;14.318;2023-02-18T12:13:31;7.10;99.90
15217;DHT22;7711;46.634;14.318;2023-02-18T12:16:06;7.00;99.90
15217;DHT22;7711;46.634;14.318;2023-02-18T12:18:48;6.90;99.90
15217;DHT22;7711;46.634;14.318;2023-02-18T12:21:30;6.90;99.90
15217;DHT22;7711;46.634;14.318;2023-02-18T12:24:07;7.10;99.90
15217;DHT22;7711;46.634;14.318;2023-02-18T12:26:47;7.10;99.90
15217;DHT22;7711;46.634;14.318;2023-02-18T12:29:37;7.30;99.90
15217;DHT22;7711;46.634;14.318;2023-02-18T12:32:28;7.10;99.90
15217;DHT22;7711;46.634;14.318;2023-02-18T12:35:10;6.90;99.90
15217;DHT22;7711;46.634;14.318;2023-02-18T12:37:52;7.30;99.90
15217;DHT22;7711;46.634;14.318;2023-02-18T12:40:44;7.50;99.90
15217;DHT22;7711;46.634;14.318;2023-02-18T12:43:25;7.20;99.90
15217;DHT22;7711;46.634;14.318;2023-02-18T12:46:20;7.40;99.90
15217;DHT22;7711;46.634;14.318;2023-02-18T12:49:01;7.40;99.90
15217;DHT22;7711;46.634;14.318;2023-02-18T12:51:40;7.40;99.90
15217;DHT22;7711;46.634;14.318;2023-02-18T12:54:28;7.50;99.90
15217;DHT22;7711;46.634;14.318;2023-02-18T12:57:21;7.30;99.90
15217;DHT22;7711;46.634;14.318;2023-02-18T13:00:09;7.90;99.90
15217;DHT22;7711;46.634;14.318;2023-02-18T13:05:41;8.40;99.90
15217;DHT22;7711;46.634;14.318;2023-02-18T13:08:26;8.70;99.90
15217;DHT22;7711;46.634;14.318;2023-02-18T13:11:06;8.70;99.90
15217;DHT22;7711;46.634;14.318;2023-02-18T13:13:43;8.90;99.90
15217;DHT22;7711;46.634;14.318;2023-02-18T13:16:15;8.90;99.90
15217;DHT22;7711;46.634;14.318;2023-02-18T13:18:48;9.50;99.90
15217;DHT22;7711;46.634;14.318;2023-02-18T13:21:16;9.50;99.90
15217;DHT22;7711;46.634;14.318;2023-02-18T13:23:49;9.60;99.90
15217;DHT22;7711;46.634;14.318;2023-02-18T13:26:19;10.00;99.90
15217;DHT22;7711;46.634;14.318;2023-02-18T13:28:51;9.70;99.90
15217;DHT22;7711;46.634;14.318;2023-02-18T13:31:34;9.80;99.90
15217;DHT22;7711;46.634;14.318;2023-02-18T13:34:11;9.50;99.90
15217;DHT22;7711;46.634;14.318;2023-02-18T13:36:49;10.10;99.90
15217;DHT22;7711;46.634;14.318;2023-02-18T13:39:20;10.30;99.90
15217;DHT22;7711;46.634;14.318;2023-02-18T13:41:48;10.30;99.90
15217;DHT22;7711;46.634;14.318;2023-02-18T13:44:39;10.70;99.90
15217;DHT22;7711;46.634;14.318;2023-02-18T13:47:08;10.70;99.90
15217;DHT22;7711;46.634;14.318;2023-02-18T13:49:37;10.30;99.90
15217;DHT22;7711;46.634;14.318;2023-02-18T13:52:14;10.10;99.90
15217;DHT22;7711;46.634;14.318;2023-02-18T13:54:45;9.60;99.90
15217;DHT22;7711;46.634;14.318;2023-02-18T13:57:15;9.70;99.90
15217;DHT22;7711;46.634;14.318;2023-02-18T13:59:46;9.80;99.90
15217;DHT22;7711;46.634;14.318;2023-02-18T14:02:31;9.80;99.90
15217;DHT22;7711;46.634;14.318;2023-02-18T14:05:19;9.70;99.90
15217;DHT22;7711;46.634;14.318;2023-02-18T14:07:50;9.60;99.90
15217;DHT22;7711;46.634;14.318;2023-02-18T14:10:35;9.30;99.90
15217;DHT22;7711;46.634;14.318;2023-02-18T14:13:19;9.30;99.90
15217;DHT22;7711;46.634;14.318;2023-02-18T14:15:53;9.20;99.90
15217;DHT22;7711;46.634;14.318;2023-02-18T14:18:30;9.30;99.90
15217;DHT22;7711;46.634;14.318;2023-02-18T14:21:18;9.20;99.90
15217;DHT22;7711;46.634;14.318;2023-02-18T14:23:58;9.00;99.90
15217;DHT22;7711;46.634;14.318;2023-02-18T14:26:32;9.10;99.90
15217;DHT22;7711;46.634;14.318;2023-02-18T14:29:04;9.00;99.90
15217;DHT22;7711;46.634;14.318;2023-02-18T14:31:45;8.80;99.90
15217;DHT22;7711;46.634;14.318;2023-02-18T14:34:51;8.40;99.90
15217;DHT22;7711;46.634;14.318;2023-02-18T14:41:03;8.60;99.90
15217;DHT22;7711;46.634;14.318;2023-02-18T14:43:58;8.50;99.90
15217;DHT22;7711;46.634;14.318;2023-02-18T14:46:37;8.30;99.90
15217;DHT22;7711;46.634;14.318;2023-02-18T14:49:23;8.20;99.90
15217;DHT22;7711;46.634;14.318;2023-02-18T14:51:56;8.20;99.90
15217;DHT22;7711;46.634;14.318;2023-02-18T14:54:25;8.00;99.90
15217;DHT22;7711;46.634;14.318;2023-02-18T14:56:57;8.00;99.90
15217;DHT22;7711;46.634;14.318;2023-02-18T14:59:27;8.00;99.90
15217;DHT22;7711;46.634;14.318;2023-02-18T15:01:56;8.00;99.90
15217;DHT22;7711;46.634;14.318;2023-02-18T15:04:24;8.00;99.90
15217;DHT22;7711;46.634;14.318;2023-02-18T15:07:01;7.90;99.90
15217;DHT22;7711;46.634;14.318;2023-02-18T15:09:29;7.90;99.90
15217;DHT22;7711;46.634;14.318;2023-02-18T15:11:59;7.80;99.90
15217;DHT22;7711;46.634;14.318;2023-02-18T15:14:31;7.50;99.90
15217;DHT22;7711;46.634;14.318;2023-02-18T15:17:00;7.40;99.90
15217;DHT22;7711;46.634;14.318;2023-02-18T15:19:31;7.30;99.90
15217;DHT22;7711;46.634;14.318;2023-02-18T15:22:03;7.30;99.90
15217;DHT22;7711;46.634;14.318;2023-02-18T15:24:33;7.20;99.90
15217;DHT22;7711;46.634;14.318;2023-02-18T15:27:03;7.00;99.90
15217;DHT22;7711;46.634;14.318;2023-02-18T15:29:34;6.90;99.90
15217;DHT22;7711;46.634;14.318;2023-02-18T15:32:13;6.80;99.90
15217;DHT22;7711;46.634;14.318;2023-02-18T15:34:41;6.70;99.90
15217;DHT22;7711;46.634;14.318;2023-02-18T15:37:13;6.50;99.90
15217;DHT22;7711;46.634;14.318;2023-02-18T15:39:44;6.40;99.90
15217;DHT22;7711;46.634;14.318;2023-02-18T15:42:18;6.30;99.90
15217;DHT22;7711;46.634;14.318;2023-02-18T15:44:52;6.30;99.90
15217;DHT22;7711;46.634;14.318;2023-02-18T15:47:21;6.20;99.90
15217;DHT22;7711;46.634;14.318;2023-02-18T15:49:52;6.10;99.90
15217;DHT22;7711;46.634;14.318;2023-02-18T15:52:24;6.00;99.90
15217;DHT22;7711;46.634;14.318;2023-02-18T15:54:53;5.80;99.90
15217;DHT22;7711;46.634;14.318;2023-02-18T15:57:26;5.80;99.90
15217;DHT22;7711;46.634;14.318;2023-02-18T15:59:58;5.70;99.90
15217;DHT22;7711;46.634;14.318;2023-02-18T16:02:31;5.50;99.90
15217;DHT22;7711;46.634;14.318;2023-02-18T16:05:00;5.40;99.90
15217;DHT22;7711;46.634;14.318;2023-02-18T16:07:48;5.20;99.90
15217;DHT22;7711;46.634;14.318;2023-02-18T16:10:20;5.10;99.90
15217;DHT22;7711;46.634;14.318;2023-02-18T16:12:50;5.00;99.90
15217;DHT22;7711;46.634;14.318;2023-02-18T16:15:22;5.00;99.90
15217;DHT22;7711;46.634;14.318;2023-02-18T16:17:50;4.80;99.90
15217;DHT22;7711;46.634;14.318;2023-02-18T16:20:27;4.60;99.90
15217;DHT22;7711;46.634;14.318;2023-02-18T16:22:59;4.50;99.90
15217;DHT22;7711;46.634;14.318;2023-02-18T16:25:39;4.40;99.90
15217;DHT22;7711;46.634;14.318;2023-02-18T16:28:12;4.30;99.90